Time;durP1;ratioP1;P1;durP2;ratioP2;P2;SDS_P1;SDS_P2;PMS_P1;PMS_P2;Temp;Humidity;BMP_temperature;BMP_pressure;BME280_temperature;BME280_humidity;BME280_pressure;Samples;Min_cycle;Max_cycle;Signal;HPM_P1;HPM_P2
2023/04/20 00:00:16;;;;;;;;;;;;;;;5.66;nan;100632.09;5048224;28;20283;-81
2023/04/20 00:02:41;;;;;;;;;;;;;;;5.56;nan;100628.50;5038170;28;19984;-82
2023/04/20 00:05:07;;;;;;;;;;;;;;;5.47;nan;100624.78;5042665;28;19917;-81
2023/04/20 00:07:33;;;;;;;;;;;;;;;5.38;nan;100622.03;5041385;28;20317;-81
2023/04/20 00:09:58;;;;;;;;;;;;;;;5.31;nan;100611.16;5024572;28;19921;-81
2023/04/20 00:12:24;;;;;;;;;;;;;;;5.28;nan;100614.84;5042805;28;19928;-81
2023/04/20 00:14:49;;;;;;;;;;;;;;;5.23;nan;100619.59;5037161;28;19917;-81
2023/04/20 00:17:14;;;;;;;;;;;;;;;5.17;nan;100614.81;5037059;28;20354;-82
2023/04/20 00:19:40;;;;;;;;;;;;;;;5.14;nan;100607.19;5040967;28;19967;-82
2023/04/20 00:22:05;;;;;;;;;;;;;;;5.14;nan;100603.72;5039479;28;19917;-81
2023/04/20 00:24:30;;;;;;;;;;;;;;;5.14;nan;100601.94;5052946;28;20006;-82
2023/04/20 00:26:55;;;;;;;;;;;;;;;5.04;nan;100604.41;5046126;28;20293;-81
2023/04/20 00:29:21;;;;;;;;;;;;;;;4.92;nan;100601.88;5041679;28;19925;-81
2023/04/20 00:31:46;;;;;;;;;;;;;;;4.82;nan;100599.09;5053600;28;20329;-81
2023/04/20 00:34:11;;;;;;;;;;;;;;;4.75;nan;100590.03;5039207;28;19917;-82
2023/04/20 00:36:36;;;;;;;;;;;;;;;4.67;nan;100588.81;5041563;28;19917;-82
2023/04/20 00:39:02;;;;;;;;;;;;;;;4.58;nan;100592.09;5043027;28;19935;-81
2023/04/20 00:41:27;;;;;;;;;;;;;;;4.51;nan;100579.56;5024241;28;19929;-81
2023/04/20 00:43:53;;;;;;;;;;;;;;;4.50;nan;100581.31;5020573;28;20015;-82
2023/04/20 00:46:18;;;;;;;;;;;;;;;4.47;nan;100578.94;5029679;28;19917;-81
2023/04/20 00:48:44;;;;;;;;;;;;;;;4.44;nan;100580.00;5039309;28;19925;-81
2023/04/20 00:51:09;;;;;;;;;;;;;;;4.43;nan;100583.56;5041153;28;19928;-81
2023/04/20 00:53:35;;;;;;;;;;;;;;;4.42;nan;100573.19;5042401;28;19921;-81
2023/04/20 00:56:00;;;;;;;;;;;;;;;4.40;nan;100569.84;5027122;28;20293;-81
2023/04/20 00:58:25;;;;;;;;;;;;;;;4.39;nan;100561.16;5041125;28;19921;-81
2023/04/20 01:00:50;;;;;;;;;;;;;;;4.34;nan;100555.44;5044636;28;19928;-80
2023/04/20 01:03:16;;;;;;;;;;;;;;;4.32;nan;100556.50;5040770;28;19980;-81
2023/04/20 01:05:41;;;;;;;;;;;;;;;4.28;nan;100550.63;5042800;28;19917;-81
2023/04/20 01:08:06;;;;;;;;;;;;;;;4.26;nan;100542.03;5040748;28;19925;-82
2023/04/20 01:10:31;;;;;;;;;;;;;;;4.29;nan;100541.84;5039075;28;20087;-81
2023/04/20 01:12:57;;;;;;;;;;;;;;;4.26;nan;100537.63;5024549;28;19932;-82
2023/04/20 01:15:22;;;;;;;;;;;;;;;4.27;nan;100541.13;5035417;28;19918;-82
2023/04/20 01:17:48;;;;;;;;;;;;;;;4.27;nan;100533.28;5022989;28;19944;-80
2023/04/20 01:20:13;;;;;;;;;;;;;;;4.20;nan;100532.03;5024068;28;19928;-80
2023/04/20 01:22:43;;;;;;;;;;;;;;;4.17;nan;100534.84;5040273;28;19917;-81
2023/04/20 01:25:08;;;;;;;;;;;;;;;4.13;nan;100529.03;5041468;28;19920;-82
2023/04/20 01:27:34;;;;;;;;;;;;;;;4.17;nan;100527.88;5042496;28;19924;-81
2023/04/20 01:29:59;;;;;;;;;;;;;;;4.18;nan;100519.06;5041968;28;20497;-82
2023/04/20 01:32:24;;;;;;;;;;;;;;;4.15;nan;100523.69;5027376;28;19921;-80
2023/04/20 01:34:49;;;;;;;;;;;;;;;4.09;nan;100513.66;5051363;28;20000;-82
2023/04/20 01:37:14;;;;;;;;;;;;;;;4.03;nan;100507.91;5048319;28;19973;-81
2023/04/20 01:39:40;;;;;;;;;;;;;;;3.96;nan;100505.84;5048726;28;19921;-81
2023/04/20 01:42:05;;;;;;;;;;;;;;;3.92;nan;100500.00;5049980;28;19917;-81
2023/04/20 01:44:30;;;;;;;;;;;;;;;3.95;nan;100497.16;5024264;28;19916;-82
2023/04/20 01:46:55;;;;;;;;;;;;;;;3.96;nan;100492.78;5041240;28;19980;-81
2023/04/20 01:49:21;;;;;;;;;;;;;;;3.93;nan;100496.44;5041750;28;19916;-82
2023/04/20 01:51:46;;;;;;;;;;;;;;;3.92;nan;100493.94;5040669;28;19917;-82
2023/04/20 01:54:11;;;;;;;;;;;;;;;3.91;nan;100489.63;5040727;28;19944;-81
2023/04/20 01:56:36;;;;;;;;;;;;;;;3.88;nan;100493.31;5040723;28;19974;-81
2023/04/20 01:59:01;;;;;;;;;;;;;;;3.83;nan;100485.78;5023550;28;20036;-81
2023/04/20 02:01:27;;;;;;;;;;;;;;;3.78;nan;100487.06;5040356;28;19989;-81
2023/04/20 02:03:52;;;;;;;;;;;;;;;3.74;nan;100485.59;5021607;28;19985;-82
2023/04/20 02:06:17;;;;;;;;;;;;;;;3.74;nan;100490.81;5020992;28;20004;-80
2023/04/20 02:08:42;;;;;;;;;;;;;;;3.76;nan;100491.56;5034784;28;20376;-81
2023/04/20 02:11:07;;;;;;;;;;;;;;;3.77;nan;100494.06;5032305;28;19987;-82
2023/04/20 02:13:33;;;;;;;;;;;;;;;3.83;nan;100484.94;5032697;28;19992;-82
2023/04/20 02:15:58;;;;;;;;;;;;;;;3.89;nan;100489.75;5030769;28;19925;-82
2023/04/20 02:18:23;;;;;;;;;;;;;;;3.98;nan;100489.09;5029024;28;19924;-82
2023/04/20 02:20:48;;;;;;;;;;;;;;;4.06;nan;100485.94;5016945;28;19921;-81
2023/04/20 02:23:14;;;;;;;;;;;;;;;3.99;nan;100482.91;5028848;28;19967;-83
2023/04/20 02:25:39;;;;;;;;;;;;;;;3.99;nan;100480.28;5027923;28;19917;-82
2023/04/20 02:28:05;;;;;;;;;;;;;;;4.04;nan;100480.78;5031189;28;19917;-82
2023/04/20 02:30:30;;;;;;;;;;;;;;;4.12;nan;100472.38;5034447;28;20008;-82
2023/04/20 02:32:55;;;;;;;;;;;;;;;4.21;nan;100473.50;5029319;28;19924;-82
2023/04/20 02:35:21;;;;;;;;;;;;;;;4.24;nan;100466.28;5039144;28;20539;-82
2023/04/20 02:37:46;;;;;;;;;;;;;;;4.31;nan;100458.78;5029874;28;19924;-82
2023/04/20 02:40:12;;;;;;;;;;;;;;;4.37;nan;100465.38;5016990;28;19925;-83
2023/04/20 02:42:37;;;;;;;;;;;;;;;4.43;nan;100460.53;5033331;28;19917;-81
2023/04/20 02:45:02;;;;;;;;;;;;;;;4.55;nan;100458.75;5030994;28;19952;-82
2023/04/20 02:47:27;;;;;;;;;;;;;;;4.61;nan;100454.84;5032926;28;19920;-83
2023/04/20 02:49:53;;;;;;;;;;;;;;;4.67;nan;100454.38;5017096;28;20357;-83
2023/04/20 02:52:18;;;;;;;;;;;;;;;4.69;nan;100457.72;5032301;28;19921;-83
2023/04/20 02:54:43;;;;;;;;;;;;;;;4.68;nan;100451.66;5024966;28;21696;-82
2023/04/20 02:57:10;;;;;;;;;;;;;;;4.75;nan;100449.41;5012259;28;19917;-83
2023/04/20 02:59:35;;;;;;;;;;;;;;;4.80;nan;100451.69;5031368;28;19977;-83
2023/04/20 03:02:00;;;;;;;;;;;;;;;4.82;nan;100444.53;5029620;28;19975;-82
2023/04/20 03:04:26;;;;;;;;;;;;;;;4.83;nan;100444.41;5014220;28;20000;-82
2023/04/20 03:06:52;;;;;;;;;;;;;;;4.77;nan;100438.81;5031094;28;19917;-83
2023/04/20 03:09:17;;;;;;;;;;;;;;;4.75;nan;100441.53;5029421;28;19971;-83
2023/04/20 03:11:43;;;;;;;;;;;;;;;4.69;nan;100436.75;5029088;28;19917;-82
2023/04/20 03:14:09;;;;;;;;;;;;;;;4.68;nan;100433.31;5028731;28;19921;-82
2023/04/20 03:16:34;;;;;;;;;;;;;;;4.67;nan;100434.28;5031451;28;21152;-83
2023/04/20 03:18:59;;;;;;;;;;;;;;;4.68;nan;100429.88;5036281;28;19920;-83
2023/04/20 03:21:24;;;;;;;;;;;;;;;4.71;nan;100426.19;5014880;28;19921;-81
2023/04/20 03:23:49;;;;;;;;;;;;;;;4.73;nan;100416.41;5028601;28;19924;-82
2023/04/20 03:26:16;;;;;;;;;;;;;;;4.68;nan;100406.28;5031429;28;19964;-82
2023/04/20 03:28:41;;;;;;;;;;;;;;;4.72;nan;100407.75;5024993;28;19917;-81
2023/04/20 03:31:06;;;;;;;;;;;;;;;4.82;nan;100405.25;5032504;28;19917;-81
2023/04/20 03:33:32;;;;;;;;;;;;;;;4.96;nan;100401.53;5026739;28;19917;-82
2023/04/20 03:35:57;;;;;;;;;;;;;;;5.04;nan;100396.56;5033246;28;20350;-83
2023/04/20 03:38:22;;;;;;;;;;;;;;;5.04;nan;100401.78;5029893;28;19924;-82
2023/04/20 03:40:47;;;;;;;;;;;;;;;5.12;nan;100396.78;5025102;28;20348;-83
2023/04/20 03:43:12;;;;;;;;;;;;;;;5.26;nan;100393.91;5030392;28;20338;-82
2023/04/20 03:45:38;;;;;;;;;;;;;;;5.28;nan;100401.66;5041125;28;19928;-81
2023/04/20 03:48:03;;;;;;;;;;;;;;;5.40;nan;100395.44;5027810;28;19975;-82
2023/04/20 03:50:28;;;;;;;;;;;;;;;5.36;nan;100395.81;5032543;28;19917;-82
2023/04/20 03:52:54;;;;;;;;;;;;;;;5.38;nan;100401.75;5032451;28;19940;-81
2023/04/20 03:55:19;;;;;;;;;;;;;;;5.31;nan;100396.16;5032590;28;20375;-81
2023/04/20 03:57:45;;;;;;;;;;;;;;;5.26;nan;100396.53;5016203;28;19924;-81
2023/04/20 04:00:11;;;;;;;;;;;;;;;5.20;nan;100397.03;5034529;28;20012;-80
2023/04/20 04:02:36;;;;;;;;;;;;;;;5.22;nan;100389.03;5034131;28;19924;-81
2023/04/20 04:05:01;;;;;;;;;;;;;;;5.19;nan;100392.72;5036658;28;20294;-81
2023/04/20 04:07:26;;;;;;;;;;;;;;;5.14;nan;100386.19;5033806;28;19923;-80
2023/04/20 04:09:52;;;;;;;;;;;;;;;5.08;nan;100385.72;5029629;28;19917;-81
2023/04/20 04:12:17;;;;;;;;;;;;;;;5.07;nan;100385.81;5030199;28;19917;-81
2023/04/20 04:14:42;;;;;;;;;;;;;;;5.05;nan;100390.34;5030370;28;19917;-81
2023/04/20 04:17:07;;;;;;;;;;;;;;;4.99;nan;100382.97;5032228;28;19917;-81
2023/04/20 04:19:33;;;;;;;;;;;;;;;5.06;nan;100394.66;5033851;28;19920;-80
2023/04/20 04:21:58;;;;;;;;;;;;;;;5.05;nan;100393.81;5039114;28;19928;-81
2023/04/20 04:24:23;;;;;;;;;;;;;;;5.05;nan;100390.34;5028153;28;19921;-81
2023/04/20 04:26:48;;;;;;;;;;;;;;;5.05;nan;100393.81;5032863;28;19951;-82
2023/04/20 04:29:14;;;;;;;;;;;;;;;5.08;nan;100390.94;5032286;28;19940;-82
2023/04/20 04:31:39;;;;;;;;;;;;;;;5.13;nan;100392.38;5014627;28;20011;-79
2023/04/20 04:34:05;;;;;;;;;;;;;;;5.20;nan;100390.97;5034183;28;19963;-83
2023/04/20 04:36:30;;;;;;;;;;;;;;;5.25;nan;100394.03;5028503;28;20004;-81
2023/04/20 04:38:55;;;;;;;;;;;;;;;5.33;nan;100399.50;5033271;28;19929;-80
2023/04/20 04:41:21;;;;;;;;;;;;;;;5.40;nan;100394.63;5036296;28;19924;-80
2023/04/20 04:43:46;;;;;;;;;;;;;;;5.43;nan;100399.59;5042047;28;19924;-80
2023/04/20 04:46:13;;;;;;;;;;;;;;;5.43;nan;100397.81;5039831;28;19941;-80
2023/04/20 04:48:39;;;;;;;;;;;;;;;5.43;nan;100389.94;5037509;28;19964;-80
2023/04/20 04:51:05;;;;;;;;;;;;;;;5.44;nan;100390.81;5041299;28;19952;-81
2023/04/20 04:53:30;;;;;;;;;;;;;;;5.49;nan;100386.03;5041029;28;19917;-80
2023/04/20 04:55:55;;;;;;;;;;;;;;;5.50;nan;100383.25;5015946;28;19924;-79
2023/04/20 04:58:20;;;;;;;;;;;;;;;5.61;nan;100385.03;5026337;28;19925;-80
2023/04/20 05:00:45;;;;;;;;;;;;;;;5.64;nan;100384.78;5033355;28;19960;-79
2023/04/20 05:03:11;;;;;;;;;;;;;;;5.66;nan;100385.50;5016036;28;19921;-80
2023/04/20 05:05:36;;;;;;;;;;;;;;;5.64;nan;100387.41;5028055;28;19932;-81
2023/04/20 05:08:01;;;;;;;;;;;;;;;5.66;nan;100384.66;5030514;28;19963;-80
2023/04/20 05:10:26;;;;;;;;;;;;;;;5.63;nan;100384.91;5012875;28;19917;-81
2023/04/20 05:12:51;;;;;;;;;;;;;;;5.71;nan;100383.31;5032509;28;19924;-80
2023/04/20 05:15:17;;;;;;;;;;;;;;;5.81;nan;100380.78;5034519;28;19916;-80
2023/04/20 05:17:42;;;;;;;;;;;;;;;5.84;nan;100390.19;5031397;28;20012;-80
2023/04/20 05:20:09;;;;;;;;;;;;;;;5.92;nan;100391.25;5030089;28;19925;-80
2023/04/20 05:22:34;;;;;;;;;;;;;;;5.99;nan;100391.63;5029380;28;20361;-79
2023/04/20 05:24:59;;;;;;;;;;;;;;;6.04;nan;100391.25;5031366;28;19917;-80
2023/04/20 05:27:25;;;;;;;;;;;;;;;6.06;nan;100394.59;5027254;28;19940;-79
2023/04/20 05:29:50;;;;;;;;;;;;;;;6.11;nan;100398.50;5028125;28;19924;-81
2023/04/20 05:32:15;;;;;;;;;;;;;;;6.14;nan;100394.78;5028060;28;20363;-81
2023/04/20 05:34:40;;;;;;;;;;;;;;;6.21;nan;100397.72;5033469;28;19917;-79
2023/04/20 05:37:05;;;;;;;;;;;;;;;6.22;nan;100392.38;5016157;28;19940;-79
2023/04/20 05:39:31;;;;;;;;;;;;;;;6.27;nan;100402.47;5030794;28;20018;-80
2023/04/20 05:41:56;;;;;;;;;;;;;;;6.30;nan;100395.19;5030897;28;19917;-80
2023/04/20 05:44:22;;;;;;;;;;;;;;;6.35;nan;100390.38;5026134;28;19932;-80
2023/04/20 05:46:47;;;;;;;;;;;;;;;6.41;nan;100385.56;5018612;28;20007;-79
2023/04/20 05:49:12;;;;;;;;;;;;;;;6.46;nan;100388.63;5011506;28;19921;-79
2023/04/20 05:51:37;;;;;;;;;;;;;;;6.51;nan;100392.56;5030130;28;19920;-80
2023/04/20 05:54:02;;;;;;;;;;;;;;;6.52;nan;100390.75;5028976;28;19932;-79
2023/04/20 05:56:27;;;;;;;;;;;;;;;6.64;nan;100392.34;5028944;28;20314;-79
2023/04/20 05:58:54;;;;;;;;;;;;;;;6.66;nan;100394.84;5012545;28;19921;-80
2023/04/20 06:01:19;;;;;;;;;;;;;;;6.74;nan;100408.16;5029430;28;19917;-79
2023/04/20 06:03:44;;;;;;;;;;;;;;;6.84;nan;100397.69;5030323;28;19956;-80
2023/04/20 06:06:09;;;;;;;;;;;;;;;6.98;nan;100405.25;5029384;28;19924;-79
2023/04/20 06:08:35;;;;;;;;;;;;;;;7.01;nan;100411.09;5028911;28;19921;-79
2023/04/20 06:11:00;;;;;;;;;;;;;;;7.01;nan;100418.97;5029821;28;19917;-80
2023/04/20 06:13:25;;;;;;;;;;;;;;;7.12;nan;100414.56;5029283;28;20183;-80
2023/04/20 06:15:52;;;;;;;;;;;;;;;7.04;nan;100407.34;5012589;28;19917;-80
2023/04/20 06:18:17;;;;;;;;;;;;;;;6.98;nan;100410.50;5029368;28;19921;-80
2023/04/20 06:20:43;;;;;;;;;;;;;;;6.95;nan;100416.03;5029387;28;20438;-80
2023/04/20 06:23:08;;;;;;;;;;;;;;;7.14;nan;100416.09;5031138;28;19974;-81
2023/04/20 06:25:34;;;;;;;;;;;;;;;7.12;nan;100418.03;5029434;28;19951;-81
2023/04/20 06:28:00;;;;;;;;;;;;;;;7.19;nan;100418.34;5029452;28;20337;-80
2023/04/20 06:30:25;;;;;;;;;;;;;;;7.33;nan;100407.44;5029788;28;19925;-81
2023/04/20 06:32:50;;;;;;;;;;;;;;;7.42;nan;100408.47;5029875;28;19917;-80
2023/04/20 06:35:16;;;;;;;;;;;;;;;7.52;nan;100408.47;5014564;28;19961;-82
2023/04/20 06:37:41;;;;;;;;;;;;;;;7.59;nan;100412.25;5028091;28;20283;-82
2023/04/20 06:40:09;;;;;;;;;;;;;;;7.59;nan;100397.28;5030956;28;19956;-80
2023/04/20 06:42:35;;;;;;;;;;;;;;;7.77;nan;100400.09;5029709;28;19917;-79
2023/04/20 06:45:00;;;;;;;;;;;;;;;8.01;nan;100393.59;5028135;28;19962;-79
2023/04/20 06:47:30;;;;;;;;;;;;;;;8.19;nan;100391.91;5029276;28;19921;-79
2023/04/20 06:49:56;;;;;;;;;;;;;;;8.36;nan;100386.91;5028958;28;19921;-81
2023/04/20 06:52:21;;;;;;;;;;;;;;;8.66;nan;100389.38;5028831;28;19925;-80
2023/04/20 06:54:46;;;;;;;;;;;;;;;8.73;nan;100383.53;5028334;28;19976;-79
2023/04/20 06:57:11;;;;;;;;;;;;;;;8.79;nan;100390.88;5029049;28;20008;-80
2023/04/20 06:59:36;;;;;;;;;;;;;;;8.69;nan;100394.34;5035792;28;20398;-81
2023/04/20 07:02:02;;;;;;;;;;;;;;;8.80;nan;100382.81;5029447;28;20483;-80
2023/04/20 07:04:27;;;;;;;;;;;;;;;9.65;nan;100398.50;5027909;28;19921;-80
2023/04/20 07:06:52;;;;;;;;;;;;;;;10.51;nan;100392.69;5028660;28;19923;-80
2023/04/20 07:09:18;;;;;;;;;;;;;;;10.90;nan;100385.16;5029332;28;20147;-80
2023/04/20 07:11:43;;;;;;;;;;;;;;;11.25;nan;100381.53;5028793;28;19964;-81
2023/04/20 07:14:08;;;;;;;;;;;;;;;11.80;nan;100389.97;5028466;28;19924;-80
2023/04/20 07:16:33;;;;;;;;;;;;;;;12.10;nan;100384.03;5029167;28;19917;-81
2023/04/20 07:18:58;;;;;;;;;;;;;;;12.43;nan;100383.22;5027696;28;20015;-80
2023/04/20 07:21:23;;;;;;;;;;;;;;;12.70;nan;100371.38;5029317;28;19943;-81
2023/04/20 07:23:49;;;;;;;;;;;;;;;12.98;nan;100373.66;5010519;28;19917;-80
2023/04/20 07:26:14;;;;;;;;;;;;;;;13.03;nan;100373.97;5025044;28;19979;-80
2023/04/20 07:28:40;;;;;;;;;;;;;;;13.01;nan;100363.50;5029929;28;19917;-80
2023/04/20 07:31:05;;;;;;;;;;;;;;;13.31;nan;100363.75;5029858;28;20286;-81
2023/04/20 07:33:30;;;;;;;;;;;;;;;13.26;nan;100366.91;5030001;28;19917;-81
2023/04/20 07:35:56;;;;;;;;;;;;;;;13.61;nan;100367.41;5027293;28;19917;-80
2023/04/20 07:38:21;;;;;;;;;;;;;;;14.34;nan;100365.19;5028757;28;20430;-81
2023/04/20 07:40:46;;;;;;;;;;;;;;;14.07;nan;100364.75;5029406;28;19983;-81
2023/04/20 07:43:11;;;;;;;;;;;;;;;14.36;nan;100368.50;5028050;28;19992;-81
2023/04/20 07:45:38;;;;;;;;;;;;;;;14.45;nan;100362.91;5037831;28;20315;-81
2023/04/20 07:48:04;;;;;;;;;;;;;;;14.75;nan;100367.47;5031406;28;19923;-81
2023/04/20 07:50:29;;;;;;;;;;;;;;;14.68;nan;100366.53;5020487;28;19917;-82
2023/04/20 07:52:54;;;;;;;;;;;;;;;13.96;nan;100368.66;5019084;28;19924;-81
2023/04/20 07:55:19;;;;;;;;;;;;;;;13.82;nan;100366.75;5033490;28;19928;-82
2023/04/20 07:57:45;;;;;;;;;;;;;;;13.13;nan;100361.28;5020007;28;19983;-83
2023/04/20 08:00:11;;;;;;;;;;;;;;;13.37;nan;100365.69;5032991;28;19936;-81
2023/04/20 08:02:36;;;;;;;;;;;;;;;13.82;nan;100356.13;5037870;28;19920;-81
2023/04/20 08:05:02;;;;;;;;;;;;;;;14.04;nan;100354.50;5023530;28;19928;-82
2023/04/20 08:07:27;;;;;;;;;;;;;;;13.68;nan;100357.75;5015495;28;19917;-81
2023/04/20 08:09:52;;;;;;;;;;;;;;;13.66;nan;100356.22;5028261;28;19913;-81
2023/04/20 08:12:17;;;;;;;;;;;;;;;13.56;nan;100345.84;5027734;28;19921;-81
2023/04/20 08:14:43;;;;;;;;;;;;;;;13.27;nan;100346.47;5028051;28;19927;-82
2023/04/20 08:17:08;;;;;;;;;;;;;;;13.06;nan;100345.25;5028157;28;19975;-81
2023/04/20 08:19:33;;;;;;;;;;;;;;;12.56;nan;100342.91;5031174;28;19922;-81
2023/04/20 08:21:58;;;;;;;;;;;;;;;12.19;nan;100339.81;5029219;28;20267;-81
2023/04/20 08:24:23;;;;;;;;;;;;;;;11.76;nan;100333.00;5027670;28;19921;-81
2023/04/20 08:26:49;;;;;;;;;;;;;;;11.64;nan;100337.78;5028513;28;20247;-81
2023/04/20 08:29:14;;;;;;;;;;;;;;;11.33;nan;100330.44;5009560;28;20363;-81
2023/04/20 08:31:39;;;;;;;;;;;;;;;11.04;nan;100333.47;5011685;28;19917;-80
2023/04/20 08:34:04;;;;;;;;;;;;;;;10.81;nan;100341.16;5031169;28;19920;-80
2023/04/20 08:36:30;;;;;;;;;;;;;;;10.72;nan;100331.50;5012302;28;20374;-80
2023/04/20 08:39:04;;;;;;;;;;;;;;;10.93;nan;100329.28;5031232;28;19921;-80
2023/04/20 08:41:29;;;;;;;;;;;;;;;10.90;nan;100328.78;5011922;28;19929;-80
2023/04/20 08:43:54;;;;;;;;;;;;;;;10.97;nan;100330.66;5031348;28;19925;-81
2023/04/20 08:46:20;;;;;;;;;;;;;;;11.03;nan;100324.69;5029220;28;19917;-80
2023/04/20 08:48:47;;;;;;;;;;;;;;;11.26;nan;100327.59;5030289;28;19948;-80
2023/04/20 08:51:13;;;;;;;;;;;;;;;11.53;nan;100325.66;5030803;28;20158;-81
2023/04/20 08:53:38;;;;;;;;;;;;;;;11.66;nan;100320.72;5025203;28;20016;-80
2023/04/20 08:56:04;;;;;;;;;;;;;;;11.56;nan;100330.66;5026711;28;19996;-80
2023/04/20 08:58:31;;;;;;;;;;;;;;;12.05;nan;100320.09;5017293;28;19924;-80
2023/04/20 09:00:59;;;;;;;;;;;;;;;12.25;nan;100315.31;5030910;28;20291;-80
2023/04/20 09:03:34;;;;;;;;;;;;;;;12.22;nan;100312.13;5031231;28;19921;-80
2023/04/20 09:06:00;;;;;;;;;;;;;;;11.99;nan;100317.28;5026958;28;19921;-81
2023/04/20 09:08:38;;;;;;;;;;;;;;;11.89;nan;100314.81;5030565;28;20341;-80
2023/04/20 09:11:04;;;;;;;;;;;;;;;12.63;nan;100304.09;5026145;28;19921;-80
2023/04/20 09:13:29;;;;;;;;;;;;;;;14.06;nan;100301.13;5030918;28;19917;-81
2023/04/20 09:15:54;;;;;;;;;;;;;;;13.92;nan;100300.91;5031603;28;20547;-80
2023/04/20 09:18:20;;;;;;;;;;;;;;;13.41;nan;100302.44;5013523;28;19916;-80
2023/04/20 09:20:45;;;;;;;;;;;;;;;12.65;nan;100299.44;5030512;28;20275;-80
2023/04/20 09:23:11;;;;;;;;;;;;;;;12.18;nan;100298.41;5030619;28;19924;-80
2023/04/20 09:25:36;;;;;;;;;;;;;;;11.98;nan;100297.91;5028969;28;20409;-80
2023/04/20 09:28:01;;;;;;;;;;;;;;;11.77;nan;100295.72;5032964;28;19957;-80
2023/04/20 09:30:40;;;;;;;;;;;;;;;11.82;nan;100284.63;5035229;28;19940;-80
2023/04/20 09:33:10;;;;;;;;;;;;;;;11.79;nan;100284.97;5011806;28;19917;-80
2023/04/20 09:35:38;;;;;;;;;;;;;;;11.59;nan;100284.47;5033319;28;19981;-80
2023/04/20 09:38:03;;;;;;;;;;;;;;;11.41;nan;100276.66;5033103;28;19916;-80
2023/04/20 09:40:29;;;;;;;;;;;;;;;11.55;nan;100275.19;5032212;28;19929;-80
2023/04/20 09:42:57;;;;;;;;;;;;;;;12.83;nan;100272.69;5030493;28;20007;-80
2023/04/20 09:45:23;;;;;;;;;;;;;;;13.41;nan;100275.88;5030277;28;19971;-81
2023/04/20 09:47:50;;;;;;;;;;;;;;;13.58;nan;100272.09;5032955;28;20402;-80
2023/04/20 09:50:15;;;;;;;;;;;;;;;13.25;nan;100271.47;5032910;28;20646;-80
2023/04/20 09:52:41;;;;;;;;;;;;;;;12.85;nan;100263.56;5031733;28;20293;-80
2023/04/20 09:55:09;;;;;;;;;;;;;;;12.71;nan;100257.16;5033987;28;20371;-80
2023/04/20 09:57:35;;;;;;;;;;;;;;;12.59;nan;100249.75;5018372;28;20066;-80
2023/04/20 10:00:00;;;;;;;;;;;;;;;12.40;nan;100262.41;5012603;28;20036;-80
2023/04/20 10:02:26;;;;;;;;;;;;;;;12.60;nan;100262.00;5030741;28;19929;-80
2023/04/20 10:04:54;;;;;;;;;;;;;;;12.66;nan;100263.97;5012694;28;19917;-80
2023/04/20 10:07:24;;;;;;;;;;;;;;;12.96;nan;100259.69;5027933;28;19917;-80
2023/04/20 10:10:00;;;;;;;;;;;;;;;13.29;nan;100260.34;5032147;28;19924;-80
2023/04/20 10:12:26;;;;;;;;;;;;;;;13.14;nan;100257.59;5028848;28;20291;-80
2023/04/20 10:14:55;;;;;;;;;;;;;;;12.79;nan;100258.94;5030958;28;19917;-80
2023/04/20 10:17:28;;;;;;;;;;;;;;;12.84;nan;100253.13;5020257;28;20004;-80
2023/04/20 10:19:53;;;;;;;;;;;;;;;12.82;nan;100250.63;5030602;28;20314;-80
2023/04/20 10:22:29;;;;;;;;;;;;;;;12.61;nan;100248.59;5023210;28;19924;-80
2023/04/20 10:24:54;;;;;;;;;;;;;;;13.32;nan;100244.09;5029547;28;19916;-80
2023/04/20 10:27:20;;;;;;;;;;;;;;;13.42;nan;100235.03;5031444;28;20397;-81
2023/04/20 10:29:46;;;;;;;;;;;;;;;14.07;nan;100237.13;5031164;28;20051;-81
2023/04/20 10:32:27;;;;;;;;;;;;;;;14.90;nan;100239.69;5030108;28;19924;-80
2023/04/20 10:35:02;;;;;;;;;;;;;;;15.20;nan;100240.44;5027157;28;20015;-80
2023/04/20 10:37:28;;;;;;;;;;;;;;;14.92;nan;100238.50;5016372;28;19924;-80
2023/04/20 10:39:53;;;;;;;;;;;;;;;14.89;nan;100228.22;5028041;28;20279;-81
2023/04/20 10:42:18;;;;;;;;;;;;;;;14.62;nan;100221.75;5028952;28;20484;-81
2023/04/20 10:44:47;;;;;;;;;;;;;;;15.07;nan;100225.16;5029512;28;19921;-80
2023/04/20 10:47:13;;;;;;;;;;;;;;;15.00;nan;100222.41;5030644;28;19924;-81
2023/04/20 10:49:39;;;;;;;;;;;;;;;14.55;nan;100220.84;5029787;28;19966;-81
2023/04/20 10:52:04;;;;;;;;;;;;;;;14.11;nan;100211.84;5031434;28;20382;-81
2023/04/20 10:54:35;;;;;;;;;;;;;;;13.90;nan;100209.06;5029418;28;19960;-81
2023/04/20 10:57:01;;;;;;;;;;;;;;;14.28;nan;100212.50;5015407;28;19955;-81
2023/04/20 10:59:27;;;;;;;;;;;;;;;15.85;nan;100212.78;5030760;28;19935;-81
2023/04/20 11:01:54;;;;;;;;;;;;;;;16.44;nan;100208.78;5022942;28;19917;-81
2023/04/20 11:04:27;;;;;;;;;;;;;;;16.02;nan;100199.16;5034329;28;20185;-81
2023/04/20 11:06:54;;;;;;;;;;;;;;;15.46;nan;100195.38;5032156;28;19917;-81
2023/04/20 11:09:22;;;;;;;;;;;;;;;14.97;nan;100204.16;5033856;28;19929;-81
2023/04/20 11:12:00;;;;;;;;;;;;;;;14.71;nan;100201.19;5034938;28;19917;-80
2023/04/20 11:14:26;;;;;;;;;;;;;;;15.00;nan;100190.44;5032309;28;19936;-80
2023/04/20 11:16:52;;;;;;;;;;;;;;;15.50;nan;100193.19;5031655;28;20158;-81
2023/04/20 11:19:29;;;;;;;;;;;;;;;15.53;nan;100191.97;5018668;28;19927;-82
2023/04/20 11:21:55;;;;;;;;;;;;;;;15.76;nan;100194.44;5027560;28;19916;-82
2023/04/20 11:24:21;;;;;;;;;;;;;;;15.28;nan;100187.06;5031791;28;19940;-81
2023/04/20 11:26:49;;;;;;;;;;;;;;;14.94;nan;100187.72;5033121;28;19921;-80
2023/04/20 11:29:34;;;;;;;;;;;;;;;14.49;nan;100189.63;5020879;28;20345;-82
2023/04/20 11:32:00;;;;;;;;;;;;;;;14.00;nan;100193.69;5034245;28;19982;-82
2023/04/20 11:34:26;;;;;;;;;;;;;;;13.70;nan;100188.31;5038359;28;19924;-80
2023/04/20 11:36:51;;;;;;;;;;;;;;;13.62;nan;100190.22;5015785;28;20322;-80
2023/04/20 11:39:24;;;;;;;;;;;;;;;13.63;nan;100181.25;5033783;28;20419;-81
2023/04/20 11:41:49;;;;;;;;;;;;;;;13.50;nan;100174.72;5032706;28;20306;-82
2023/04/20 11:44:15;;;;;;;;;;;;;;;13.34;nan;100177.50;5027335;28;20003;-81
2023/04/20 11:46:42;;;;;;;;;;;;;;;13.44;nan;100171.94;5031423;28;20058;-81
2023/04/20 11:49:08;;;;;;;;;;;;;;;13.98;nan;100169.09;5013848;28;20473;-81
2023/04/20 11:51:33;;;;;;;;;;;;;;;14.94;nan;100169.06;5030329;28;19952;-80
2023/04/20 11:53:58;;;;;;;;;;;;;;;15.55;nan;100166.78;5013052;28;19916;-81
2023/04/20 11:56:23;;;;;;;;;;;;;;;15.54;nan;100170.47;5029857;28;19928;-82
2023/04/20 11:58:48;;;;;;;;;;;;;;;14.93;nan;100164.78;5030069;28;19917;-81
2023/04/20 12:01:15;;;;;;;;;;;;;;;14.59;nan;100168.91;5030175;28;19924;-82
2023/04/20 12:03:40;;;;;;;;;;;;;;;14.52;nan;100174.13;5031071;28;19951;-79
2023/04/20 12:06:06;;;;;;;;;;;;;;;14.49;nan;100169.19;5019025;28;19917;-80
2023/04/20 12:08:31;;;;;;;;;;;;;;;14.15;nan;100167.91;5040465;28;19916;-79
2023/04/20 12:10:57;;;;;;;;;;;;;;;13.79;nan;100175.78;5041095;28;19917;-80
2023/04/20 12:13:22;;;;;;;;;;;;;;;13.35;nan;100177.34;5040961;28;19917;-79
2023/04/20 12:15:47;;;;;;;;;;;;;;;12.93;nan;100186.53;5025695;28;19921;-80
2023/04/20 12:18:12;;;;;;;;;;;;;;;12.84;nan;100182.28;5032511;28;20004;-82
2023/04/20 12:20:37;;;;;;;;;;;;;;;12.88;nan;100183.59;5034481;28;19925;-82
2023/04/20 12:23:03;;;;;;;;;;;;;;;12.90;nan;100181.59;5034494;28;19929;-81
2023/04/20 12:25:31;;;;;;;;;;;;;;;13.02;nan;100187.34;5020175;28;19917;-82
2023/04/20 12:27:56;;;;;;;;;;;;;;;13.14;nan;100180.59;5032995;28;19917;-82
2023/04/20 12:30:21;;;;;;;;;;;;;;;13.16;nan;100177.78;5014345;28;19928;-84
2023/04/20 12:32:47;;;;;;;;;;;;;;;13.07;nan;100176.19;5030577;28;19979;-82
2023/04/20 12:35:12;;;;;;;;;;;;;;;13.04;nan;100192.44;5033568;28;19928;-82
2023/04/20 12:37:37;;;;;;;;;;;;;;;12.67;nan;100194.81;5031320;28;19921;-82
2023/04/20 12:40:05;;;;;;;;;;;;;;;11.62;nan;100192.28;5031978;28;19928;-83
2023/04/20 12:42:30;;;;;;;;;;;;;;;11.14;nan;100193.09;5030496;28;19960;-84
2023/04/20 12:44:55;;;;;;;;;;;;;;;10.96;nan;100186.09;5019456;28;19953;-83
2023/04/20 12:47:20;;;;;;;;;;;;;;;11.11;nan;100190.75;5033672;28;19917;-83
2023/04/20 12:49:46;;;;;;;;;;;;;;;11.25;nan;100183.03;5027608;28;19917;-84
2023/04/20 12:52:11;;;;;;;;;;;;;;;11.60;nan;100191.59;5016899;28;20748;-83
2023/04/20 12:54:36;;;;;;;;;;;;;;;11.99;nan;100200.69;5031746;28;19979;-83